createdAt,value
2019-06-10T11:16:03.371Z,26.20
2019-06-10T11:18:33.847Z,26.00
2019-06-10T11:21:05.222Z,25.90
2019-06-10T11:23:34.460Z,26.00
2019-06-10T11:26:03.908Z,26.00
2019-06-10T11:28:32.794Z,26.00
2019-06-10T11:31:03.825Z,26.10
2019-06-10T11:33:33.018Z,26.70
2019-06-10T11:36:02.979Z,27.50
2019-06-10T11:38:32.799Z,28.00
2019-06-10T11:41:02.108Z,27.60
2019-06-10T11:43:33.080Z,27.50
2019-06-10T11:46:06.794Z,27.50
2019-06-10T11:48:32.939Z,26.90
2019-06-10T11:51:04.538Z,26.90
2019-06-10T11:53:34.349Z,27.00
2019-06-10T11:56:03.463Z,26.90
2019-06-10T11:58:33.369Z,26.70
2019-06-10T12:01:04.099Z,26.60
2019-06-10T12:03:34.167Z,26.90
2019-06-10T12:06:05.424Z,26.90
2019-06-10T12:08:37.021Z,26.80
2019-06-10T12:11:06.135Z,26.40
2019-06-10T12:13:35.405Z,26.50
2019-06-10T12:17:05.101Z,26.60
2019-06-10T12:18:35.176Z,26.50
2019-06-10T12:21:04.418Z,27.00
2019-06-10T12:23:33.839Z,27.20
2019-06-10T12:26:04.766Z,27.50
2019-06-10T12:28:34.748Z,27.80
2019-06-10T12:31:06.840Z,27.90
2019-06-10T12:33:34.249Z,27.70
2019-06-10T12:36:06.621Z,27.90
2019-06-10T12:38:33.838Z,28.90
2019-06-10T12:41:07.824Z,30.00
2019-06-10T12:43:33.305Z,30.60
2019-06-10T12:46:03.368Z,30.60
2019-06-10T12:48:34.115Z,30.50
2019-06-10T12:51:07.936Z,30.60
2019-06-10T12:53:34.025Z,31.40
2019-06-10T12:56:10.078Z,31.60
2019-06-10T12:58:33.969Z,31.20
2019-06-10T13:01:05.584Z,30.70
2019-06-10T13:03:34.015Z,29.90
2019-06-10T13:06:07.272Z,30.30
2019-06-10T13:08:35.791Z,30.10
2019-06-10T13:11:04.681Z,30.80
2019-06-10T13:13:33.780Z,30.10
2019-06-10T13:16:06.697Z,29.20
2019-06-10T13:18:33.812Z,29.10
2019-06-10T13:21:10.905Z,28.80
2019-06-10T13:23:35.436Z,28.50
2019-06-10T13:26:10.439Z,28.30
2019-06-10T13:28:34.696Z,28.80
2019-06-10T13:31:06.140Z,29.00
2019-06-10T13:33:33.972Z,29.20
2019-06-10T13:36:05.456Z,28.90
2019-06-10T13:38:33.375Z,28.60
2019-06-10T13:41:02.873Z,28.60
2019-06-10T13:43:33.961Z,28.70
2019-06-10T13:46:05.669Z,28.50
2019-06-10T13:48:33.711Z,28.70
2019-06-10T13:51:08.286Z,28.30
2019-06-10T13:53:33.504Z,28.00
2019-06-10T13:56:26.612Z,27.60
2019-06-10T13:58:33.004Z,27.60
2019-06-10T14:01:04.642Z,27.60
2019-06-10T14:03:32.805Z,27.50
2019-06-10T14:06:12.971Z,27.60
2019-06-10T14:08:32.656Z,27.80
2019-06-10T14:11:06.886Z,27.70
2019-06-10T14:13:32.743Z,27.70
2019-06-10T14:16:01.644Z,27.60
2019-06-10T14:18:32.780Z,27.90
2019-06-10T14:21:06.201Z,28.20
2019-06-10T14:23:33.092Z,27.90
2019-06-10T14:26:03.080Z,27.50
2019-06-10T14:28:40.828Z,27.40
2019-06-10T14:31:24.242Z,27.40
2019-06-10T14:33:34.157Z,27.30
2019-06-10T14:36:04.962Z,27.40
2019-06-10T14:38:33.600Z,27.50
2019-06-10T14:41:03.411Z,27.30
2019-06-10T14:43:33.379Z,27.50
2019-06-10T14:46:02.361Z,27.50
2019-06-10T14:48:33.420Z,27.60
2019-06-10T14:51:03.384Z,28.10
2019-06-10T14:53:33.754Z,28.00
2019-06-10T14:56:03.704Z,27.70
2019-06-10T14:58:32.898Z,27.70
2019-06-10T15:01:04.775Z,27.80
2019-06-10T15:03:32.864Z,27.90
2019-06-10T15:06:03.104Z,28.10
2019-06-10T15:08:32.496Z,28.20
2019-06-10T15:11:01.403Z,28.10
2019-06-10T15:13:32.546Z,28.10
2019-06-10T15:16:04.392Z,28.30
2019-06-10T15:18:32.991Z,28.10
2019-06-10T15:21:02.691Z,28.10
2019-06-10T15:23:32.425Z,28.00
2019-06-10T15:26:02.787Z,27.90
2019-06-10T15:28:31.935Z,27.90
2019-06-10T15:31:02.996Z,27.90
2019-06-10T15:33:32.605Z,27.80
2019-06-10T15:36:02.374Z,28.00
2019-06-10T15:38:32.779Z,28.00
2019-06-10T15:41:01.825Z,28.00
2019-06-10T15:43:32.917Z,28.00
2019-06-10T15:46:03.281Z,28.10
2019-06-10T15:48:31.707Z,28.30
2019-06-10T15:51:03.081Z,28.40
2019-06-10T15:53:32.786Z,28.20
2019-06-10T15:56:18.012Z,28.40
2019-06-10T15:58:32.435Z,28.50
2019-06-10T16:01:02.791Z,28.40
2019-06-10T16:03:33.077Z,28.40
2019-06-10T16:06:03.200Z,28.30
2019-06-10T16:08:32.482Z,28.30
2019-06-10T16:11:03.128Z,28.50
2019-06-10T16:13:32.408Z,28.90
2019-06-10T16:16:03.594Z,28.90
2019-06-10T16:18:32.941Z,29.00
2019-06-10T16:21:04.374Z,28.70
2019-06-10T16:23:34.007Z,28.90
2019-06-10T16:26:03.302Z,29.10
2019-06-10T16:28:32.874Z,29.00
2019-06-10T16:31:02.744Z,28.90
2019-06-10T16:33:33.409Z,29.00
2019-06-10T16:36:03.195Z,28.80
2019-06-10T16:38:32.772Z,28.80
2019-06-10T16:41:03.553Z,28.90
2019-06-10T16:43:33.499Z,29.00
2019-06-10T16:46:03.286Z,29.20
2019-06-10T16:48:33.424Z,29.00
2019-06-10T16:51:03.427Z,29.00
2019-06-10T16:53:35.478Z,28.80
2019-06-10T16:56:03.461Z,29.00
2019-06-10T16:58:33.444Z,29.00
2019-06-10T17:01:04.084Z,28.80
2019-06-10T17:03:34.040Z,28.70
2019-06-10T17:06:03.178Z,28.50
2019-06-10T17:08:33.515Z,28.50
2019-06-10T17:11:03.482Z,28.40
2019-06-10T17:13:32.489Z,28.30
2019-06-10T17:16:03.456Z,28.20
2019-06-10T17:18:33.611Z,28.30
2019-06-10T17:21:04.075Z,28.20
2019-06-10T17:23:36.578Z,28.20
2019-06-10T17:26:03.814Z,28.10
2019-06-10T17:28:36.587Z,27.90
2019-06-10T17:31:04.081Z,27.90
2019-06-10T17:33:35.725Z,27.80
2019-06-10T17:36:03.735Z,27.80
2019-06-10T17:38:32.691Z,27.70
2019-06-10T17:41:02.946Z,27.80
2019-06-10T17:43:34.443Z,27.80
2019-06-10T17:46:03.836Z,27.70
2019-06-10T17:48:33.649Z,27.70
2019-06-10T17:51:02.746Z,27.70
2019-06-10T17:53:34.670Z,27.60
2019-06-10T17:56:03.210Z,27.60
2019-06-10T17:58:49.264Z,27.60
2019-06-10T18:01:03.218Z,27.60
2019-06-10T18:03:33.375Z,27.50
2019-06-10T18:06:02.918Z,27.30
2019-06-10T18:08:34.997Z,27.20
2019-06-10T18:11:03.289Z,27.10
2019-06-10T18:13:33.087Z,27.10
2019-06-10T18:16:03.014Z,27.20
2019-06-10T18:18:35.653Z,27.10
2019-06-10T18:21:03.362Z,27.10
2019-06-10T18:23:33.083Z,27.00
2019-06-10T18:26:03.272Z,26.90
2019-06-10T18:28:45.317Z,26.80
2019-06-10T18:31:02.939Z,26.70
2019-06-10T18:33:34.578Z,26.60
2019-06-10T18:36:02.587Z,26.50
2019-06-10T18:38:35.181Z,26.50
2019-06-10T18:41:03.149Z,26.30
2019-06-10T18:43:34.145Z,26.20
2019-06-10T18:46:03.597Z,26.10
2019-06-10T18:48:36.010Z,26.10
2019-06-10T18:51:03.453Z,26.10
2019-06-10T18:53:33.516Z,26.10
2019-06-10T18:56:09.058Z,26.00
2019-06-10T18:58:38.937Z,25.80
2019-06-10T19:01:08.273Z,25.70
2019-06-10T19:03:38.281Z,25.60
2019-06-10T19:06:08.638Z,25.60
2019-06-10T19:08:38.989Z,25.60
2019-06-10T19:11:08.032Z,25.60
2019-06-10T19:13:37.557Z,25.60
2019-06-10T19:16:07.756Z,25.50
2019-06-10T19:18:36.578Z,25.40
2019-06-10T19:21:08.604Z,25.50
2019-06-10T19:23:37.838Z,25.60
2019-06-10T19:26:07.648Z,25.50
2019-06-10T19:28:38.743Z,25.50
2019-06-10T19:31:07.133Z,25.50
2019-06-10T19:33:37.546Z,25.50
2019-06-10T19:36:07.054Z,25.40
2019-06-10T19:38:37.095Z,25.30
2019-06-10T19:41:06.524Z,25.30
2019-06-10T19:43:37.474Z,25.20
2019-06-10T19:46:07.643Z,25.00
2019-06-10T19:48:39.940Z,25.00
2019-06-10T19:51:07.837Z,25.00
2019-06-10T19:53:37.289Z,24.90
2019-06-10T19:56:06.224Z,24.80
2019-06-10T19:58:36.196Z,24.80
2019-06-10T20:01:08.005Z,24.70
2019-06-10T20:03:37.693Z,24.70
2019-06-10T20:06:06.700Z,24.70
2019-06-10T20:08:36.077Z,24.80
2019-06-10T20:11:05.495Z,24.80
2019-06-10T20:13:34.461Z,24.80
2019-06-10T20:16:03.298Z,24.80
2019-06-10T20:18:33.258Z,24.70
2019-06-10T20:21:02.880Z,24.80
2019-06-10T20:23:33.284Z,24.80
2019-06-10T20:26:02.368Z,24.90
2019-06-10T20:28:32.146Z,24.80
2019-06-10T20:31:01.104Z,24.60
2019-06-10T20:33:36.194Z,24.50
2019-06-10T20:36:06.568Z,24.20
2019-06-10T20:38:33.307Z,23.80
2019-06-10T20:41:02.778Z,23.20
2019-06-10T20:43:32.890Z,22.50
2019-06-10T20:46:03.031Z,21.50
2019-06-10T20:48:33.301Z,20.90
2019-06-10T20:51:02.993Z,20.60
2019-06-10T20:53:33.874Z,20.20
2019-06-10T20:56:03.816Z,20.00
2019-06-10T20:58:33.243Z,19.70
2019-06-10T21:01:04.702Z,19.50
2019-06-10T21:03:32.772Z,19.40
2019-06-10T21:06:03.526Z,19.30
2019-06-10T21:08:33.370Z,19.20
2019-06-10T21:11:03.127Z,19.10
2019-06-10T21:13:33.104Z,19.20
2019-06-10T21:16:03.725Z,19.40
2019-06-10T21:18:33.302Z,19.30
2019-06-10T21:21:02.202Z,19.20
2019-06-10T21:23:31.158Z,19.20
2019-06-10T21:26:02.574Z,19.30
2019-06-10T21:28:32.692Z,19.40
2019-06-10T21:31:02.895Z,19.40
2019-06-10T21:33:33.313Z,19.40
2019-06-10T21:36:03.929Z,19.30
2019-06-10T21:38:33.454Z,19.10
2019-06-10T21:41:03.294Z,19.10
2019-06-10T21:43:33.073Z,19.00
2019-06-10T21:46:03.786Z,18.80
2019-06-10T21:48:32.575Z,18.70
2019-06-10T21:51:01.718Z,18.50
2019-06-10T21:53:30.614Z,18.30
2019-06-10T21:55:59.528Z,18.20
2019-06-10T21:58:28.344Z,18.00
2019-06-10T22:01:11.616Z,17.90
2019-06-10T22:03:28.430Z,17.80
2019-06-10T22:05:57.921Z,17.90
2019-06-10T22:08:26.683Z,18.00
2019-06-10T22:10:56.622Z,17.60
2019-06-10T22:13:25.627Z,17.60
2019-06-10T22:15:56.905Z,17.50
2019-06-10T22:18:25.065Z,17.60
2019-06-10T22:20:57.241Z,17.60
2019-06-10T22:23:24.631Z,17.50
2019-06-10T22:25:55.711Z,17.40
2019-06-10T22:28:23.999Z,17.50
2019-06-10T22:31:10.837Z,17.50
2019-06-10T22:33:23.179Z,17.30
2019-06-10T22:35:55.411Z,17.40
2019-06-10T22:38:22.397Z,17.30
2019-06-10T22:40:53.636Z,17.30
2019-06-10T22:43:23.587Z,17.30
2019-06-10T22:45:54.243Z,17.40
2019-06-10T22:48:22.657Z,17.40
2019-06-10T22:50:51.527Z,17.50
2019-06-10T22:53:23.015Z,17.60
2019-06-10T22:55:53.053Z,17.40
2019-06-10T22:58:23.661Z,17.30
2019-06-10T23:00:53.215Z,17.20
2019-06-10T23:03:22.424Z,17.20
2019-06-10T23:05:52.363Z,17.30
2019-06-10T23:08:22.976Z,17.30
2019-06-10T23:10:53.749Z,17.30
2019-06-10T23:13:23.121Z,17.30
2019-06-10T23:15:53.988Z,17.30
2019-06-10T23:18:22.624Z,17.30
2019-06-10T23:20:54.499Z,17.30
2019-06-10T23:23:23.304Z,17.40
2019-06-10T23:25:53.685Z,17.40
2019-06-10T23:28:22.764Z,17.50
2019-06-10T23:30:55.291Z,17.50
2019-06-10T23:33:22.902Z,17.40
2019-06-10T23:35:52.608Z,17.40
2019-06-10T23:38:23.613Z,17.50
2019-06-10T23:40:52.778Z,17.40
2019-06-10T23:43:22.542Z,17.40
2019-06-10T23:45:51.499Z,17.40
2019-06-10T23:48:22.540Z,17.40
2019-06-10T23:50:53.847Z,17.30
2019-06-10T23:53:23.247Z,17.40
2019-06-10T23:55:53.433Z,17.30
2019-06-10T23:58:24.965Z,17.20
